sensor_id;sensor_type;location;lat;lon;timestamp;P1;durP1;ratioP1;P2;durP2;ratioP2
46116;SDS011;32591;48.102;11.772;2023-05-24T00:01:37;6.18;;;4.18;;
46116;SDS011;32591;48.102;11.772;2023-05-24T00:04:06;6.53;;;4.28;;
46116;SDS011;32591;48.102;11.772;2023-05-24T00:06:35;8.20;;;4.15;;
46116;SDS011;32591;48.102;11.772;2023-05-24T00:09:03;8.98;;;4.68;;
46116;SDS011;32591;48.102;11.772;2023-05-24T00:11:30;5.25;;;4.18;;
46116;SDS011;32591;48.102;11.772;2023-05-24T00:13:57;6.63;;;4.25;;
46116;SDS011;32591;48.102;11.772;2023-05-24T00:16:24;7.40;;;5.05;;
46116;SDS011;32591;48.102;11.772;2023-05-24T00:18:51;5.45;;;4.18;;
46116;SDS011;32591;48.102;11.772;2023-05-24T00:21:19;8.07;;;5.07;;
46116;SDS011;32591;48.102;11.772;2023-05-24T00:23:46;6.65;;;4.18;;
46116;SDS011;32591;48.102;11.772;2023-05-24T00:26:17;7.20;;;5.43;;
46116;SDS011;32591;48.102;11.772;2023-05-24T00:28:44;7.88;;;4.70;;
46116;SDS011;32591;48.102;11.772;2023-05-24T00:31:11;6.45;;;4.80;;
46116;SDS011;32591;48.102;11.772;2023-05-24T00:33:38;6.13;;;4.35;;
46116;SDS011;32591;48.102;11.772;2023-05-24T00:36:05;7.35;;;4.30;;
46116;SDS011;32591;48.102;11.772;2023-05-24T00:38:32;7.78;;;4.63;;
46116;SDS011;32591;48.102;11.772;2023-05-24T00:40:59;6.82;;;4.32;;
46116;SDS011;32591;48.102;11.772;2023-05-24T00:43:27;6.03;;;4.13;;
46116;SDS011;32591;48.102;11.772;2023-05-24T00:45:58;5.60;;;4.28;;
46116;SDS011;32591;48.102;11.772;2023-05-24T00:48:40;5.30;;;3.88;;
46116;SDS011;32591;48.102;11.772;2023-05-24T00:51:08;5.93;;;4.18;;
46116;SDS011;32591;48.102;11.772;2023-05-24T00:53:36;5.28;;;3.83;;
46116;SDS011;32591;48.102;11.772;2023-05-24T00:56:04;6.38;;;5.25;;
46116;SDS011;32591;48.102;11.772;2023-05-24T00:58:33;5.53;;;3.75;;
46116;SDS011;32591;48.102;11.772;2023-05-24T01:01:01;5.22;;;4.15;;
46116;SDS011;32591;48.102;11.772;2023-05-24T01:03:29;4.78;;;3.75;;
46116;SDS011;32591;48.102;11.772;2023-05-24T01:05:56;5.63;;;4.05;;
46116;SDS011;32591;48.102;11.772;2023-05-24T01:08:31;6.50;;;4.25;;
46116;SDS011;32591;48.102;11.772;2023-05-24T01:11:16;5.95;;;4.20;;
46116;SDS011;32591;48.102;11.772;2023-05-24T01:13:56;5.22;;;3.78;;
46116;SDS011;32591;48.102;11.772;2023-05-24T01:16:34;6.07;;;4.53;;
46116;SDS011;32591;48.102;11.772;2023-05-24T01:19:16;9.02;;;3.90;;
46116;SDS011;32591;48.102;11.772;2023-05-24T01:22:07;6.20;;;3.88;;
46116;SDS011;32591;48.102;11.772;2023-05-24T01:24:52;5.78;;;4.40;;
46116;SDS011;32591;48.102;11.772;2023-05-24T01:27:29;7.90;;;4.53;;
46116;SDS011;32591;48.102;11.772;2023-05-24T01:29:59;8.15;;;4.70;;
46116;SDS011;32591;48.102;11.772;2023-05-24T01:32:28;6.10;;;4.30;;
46116;SDS011;32591;48.102;11.772;2023-05-24T01:34:56;6.00;;;4.45;;
46116;SDS011;32591;48.102;11.772;2023-05-24T01:37:23;5.60;;;4.10;;
46116;SDS011;32591;48.102;11.772;2023-05-24T01:39:50;9.13;;;5.68;;
46116;SDS011;32591;48.102;11.772;2023-05-24T01:42:22;6.97;;;4.82;;
46116;SDS011;32591;48.102;11.772;2023-05-24T01:44:56;6.90;;;4.95;;
46116;SDS011;32591;48.102;11.772;2023-05-24T01:47:33;7.72;;;5.18;;
46116;SDS011;32591;48.102;11.772;2023-05-24T01:50:22;7.75;;;5.38;;
46116;SDS011;32591;48.102;11.772;2023-05-24T01:52:53;6.50;;;4.53;;
46116;SDS011;32591;48.102;11.772;2023-05-24T01:55:24;6.38;;;4.70;;
46116;SDS011;32591;48.102;11.772;2023-05-24T01:57:53;6.88;;;4.82;;
46116;SDS011;32591;48.102;11.772;2023-05-24T02:00:29;8.75;;;4.88;;
46116;SDS011;32591;48.102;11.772;2023-05-24T02:02:58;8.77;;;5.20;;
46116;SDS011;32591;48.102;11.772;2023-05-24T02:05:27;7.85;;;5.28;;
46116;SDS011;32591;48.102;11.772;2023-05-24T02:07:54;11.02;;;5.53;;
46116;SDS011;32591;48.102;11.772;2023-05-24T02:10:21;10.52;;;5.15;;
46116;SDS011;32591;48.102;11.772;2023-05-24T02:12:48;8.13;;;4.85;;
46116;SDS011;32591;48.102;11.772;2023-05-24T02:15:15;7.75;;;4.88;;
46116;SDS011;32591;48.102;11.772;2023-05-24T02:17:44;7.60;;;5.18;;
46116;SDS011;32591;48.102;11.772;2023-05-24T02:20:12;6.90;;;4.70;;
46116;SDS011;32591;48.102;11.772;2023-05-24T02:22:41;7.18;;;4.53;;
46116;SDS011;32591;48.102;11.772;2023-05-24T02:25:08;7.60;;;5.25;;
46116;SDS011;32591;48.102;11.772;2023-05-24T02:27:35;8.25;;;5.18;;
46116;SDS011;32591;48.102;11.772;2023-05-24T02:30:03;6.63;;;4.75;;
46116;SDS011;32591;48.102;11.772;2023-05-24T02:32:32;6.90;;;4.65;;
46116;SDS011;32591;48.102;11.772;2023-05-24T02:35:00;6.82;;;4.78;;
46116;SDS011;32591;48.102;11.772;2023-05-24T02:37:27;8.27;;;5.32;;
46116;SDS011;32591;48.102;11.772;2023-05-24T02:39:55;7.95;;;5.57;;
46116;SDS011;32591;48.102;11.772;2023-05-24T02:42:22;9.68;;;6.25;;
46116;SDS011;32591;48.102;11.772;2023-05-24T02:44:49;8.73;;;5.53;;
46116;SDS011;32591;48.102;11.772;2023-05-24T02:47:16;8.48;;;5.85;;
46116;SDS011;32591;48.102;11.772;2023-05-24T02:49:44;11.32;;;6.38;;
46116;SDS011;32591;48.102;11.772;2023-05-24T02:52:12;12.48;;;6.50;;
46116;SDS011;32591;48.102;11.772;2023-05-24T02:54:40;10.07;;;5.72;;
46116;SDS011;32591;48.102;11.772;2023-05-24T02:57:07;9.80;;;6.32;;
46116;SDS011;32591;48.102;11.772;2023-05-24T02:59:34;8.60;;;5.72;;
46116;SDS011;32591;48.102;11.772;2023-05-24T03:02:01;9.25;;;6.13;;
46116;SDS011;32591;48.102;11.772;2023-05-24T03:04:28;9.40;;;6.13;;
46116;SDS011;32591;48.102;11.772;2023-05-24T03:06:55;10.23;;;6.70;;
46116;SDS011;32591;48.102;11.772;2023-05-24T03:09:23;10.23;;;7.15;;
46116;SDS011;32591;48.102;11.772;2023-05-24T03:11:51;9.48;;;7.28;;
46116;SDS011;32591;48.102;11.772;2023-05-24T03:14:18;10.40;;;6.85;;
46116;SDS011;32591;48.102;11.772;2023-05-24T03:16:46;9.75;;;6.47;;
46116;SDS011;32591;48.102;11.772;2023-05-24T03:19:14;10.70;;;7.22;;
46116;SDS011;32591;48.102;11.772;2023-05-24T03:21:42;12.10;;;6.82;;
46116;SDS011;32591;48.102;11.772;2023-05-24T03:24:09;10.45;;;6.72;;
46116;SDS011;32591;48.102;11.772;2023-05-24T03:26:39;9.00;;;6.43;;
46116;SDS011;32591;48.102;11.772;2023-05-24T03:29:06;10.23;;;6.68;;
46116;SDS011;32591;48.102;11.772;2023-05-24T03:31:33;9.25;;;6.65;;
46116;SDS011;32591;48.102;11.772;2023-05-24T03:34:00;10.05;;;7.10;;
46116;SDS011;32591;48.102;11.772;2023-05-24T03:36:27;10.18;;;6.90;;
46116;SDS011;32591;48.102;11.772;2023-05-24T03:38:55;9.27;;;6.25;;
46116;SDS011;32591;48.102;11.772;2023-05-24T03:41:23;9.38;;;6.30;;
46116;SDS011;32591;48.102;11.772;2023-05-24T03:43:51;8.50;;;5.75;;
46116;SDS011;32591;48.102;11.772;2023-05-24T03:46:18;10.20;;;5.95;;
46116;SDS011;32591;48.102;11.772;2023-05-24T03:48:45;8.45;;;5.55;;
46116;SDS011;32591;48.102;11.772;2023-05-24T03:51:13;12.18;;;5.75;;
46116;SDS011;32591;48.102;11.772;2023-05-24T03:53:40;9.05;;;6.25;;
46116;SDS011;32591;48.102;11.772;2023-05-24T03:56:07;10.70;;;5.40;;
46116;SDS011;32591;48.102;11.772;2023-05-24T03:58:34;6.20;;;4.68;;
46116;SDS011;32591;48.102;11.772;2023-05-24T04:01:04;5.97;;;4.10;;
46116;SDS011;32591;48.102;11.772;2023-05-24T04:03:31;6.18;;;4.03;;
46116;SDS011;32591;48.102;11.772;2023-05-24T04:05:59;7.25;;;4.05;;
46116;SDS011;32591;48.102;11.772;2023-05-24T04:08:25;6.53;;;4.57;;
46116;SDS011;32591;48.102;11.772;2023-05-24T04:10:53;5.25;;;3.72;;
46116;SDS011;32591;48.102;11.772;2023-05-24T04:13:20;6.20;;;3.92;;
46116;SDS011;32591;48.102;11.772;2023-05-24T04:15:47;5.40;;;3.78;;
46116;SDS011;32591;48.102;11.772;2023-05-24T04:18:15;6.20;;;4.07;;
46116;SDS011;32591;48.102;11.772;2023-05-24T04:20:42;5.85;;;3.88;;
46116;SDS011;32591;48.102;11.772;2023-05-24T04:23:09;8.00;;;4.72;;
46116;SDS011;32591;48.102;11.772;2023-05-24T04:25:39;7.60;;;4.60;;
46116;SDS011;32591;48.102;11.772;2023-05-24T04:28:06;8.10;;;4.90;;
46116;SDS011;32591;48.102;11.772;2023-05-24T04:30:33;7.95;;;4.72;;
46116;SDS011;32591;48.102;11.772;2023-05-24T04:33:00;7.22;;;4.95;;
46116;SDS011;32591;48.102;11.772;2023-05-24T04:35:29;6.53;;;4.72;;
46116;SDS011;32591;48.102;11.772;2023-05-24T04:37:56;5.90;;;4.15;;
46116;SDS011;32591;48.102;11.772;2023-05-24T04:40:23;8.55;;;5.57;;
46116;SDS011;32591;48.102;11.772;2023-05-24T04:42:50;9.75;;;5.13;;
46116;SDS011;32591;48.102;11.772;2023-05-24T04:45:17;6.15;;;4.45;;
46116;SDS011;32591;48.102;11.772;2023-05-24T04:47:44;7.45;;;4.63;;
46116;SDS011;32591;48.102;11.772;2023-05-24T04:50:11;6.95;;;4.50;;
46116;SDS011;32591;48.102;11.772;2023-05-24T04:52:40;8.02;;;4.53;;
46116;SDS011;32591;48.102;11.772;2023-05-24T04:55:07;6.20;;;4.50;;
46116;SDS011;32591;48.102;11.772;2023-05-24T04:57:35;10.55;;;4.63;;
46116;SDS011;32591;48.102;11.772;2023-05-24T05:00:02;9.13;;;4.57;;
46116;SDS011;32591;48.102;11.772;2023-05-24T05:02:31;8.68;;;4.47;;
46116;SDS011;32591;48.102;11.772;2023-05-24T05:04:58;6.53;;;4.90;;
46116;SDS011;32591;48.102;11.772;2023-05-24T05:07:25;9.93;;;5.90;;
46116;SDS011;32591;48.102;11.772;2023-05-24T05:09:54;8.02;;;5.50;;
46116;SDS011;32591;48.102;11.772;2023-05-24T05:12:21;7.10;;;5.05;;
46116;SDS011;32591;48.102;11.772;2023-05-24T05:14:48;13.13;;;5.65;;
46116;SDS011;32591;48.102;11.772;2023-05-24T05:17:14;7.55;;;5.15;;
46116;SDS011;32591;48.102;11.772;2023-05-24T05:19:41;7.68;;;4.90;;
46116;SDS011;32591;48.102;11.772;2023-05-24T05:22:08;9.35;;;5.43;;
46116;SDS011;32591;48.102;11.772;2023-05-24T05:24:35;9.63;;;5.47;;
46116;SDS011;32591;48.102;11.772;2023-05-24T05:27:04;11.30;;;5.53;;
46116;SDS011;32591;48.102;11.772;2023-05-24T05:29:31;11.02;;;6.80;;
46116;SDS011;32591;48.102;11.772;2023-05-24T05:31:58;11.40;;;6.43;;
46116;SDS011;32591;48.102;11.772;2023-05-24T05:34:25;10.95;;;5.88;;
46116;SDS011;32591;48.102;11.772;2023-05-24T05:36:52;9.77;;;6.05;;
46116;SDS011;32591;48.102;11.772;2023-05-24T05:39:19;8.88;;;5.60;;
46116;SDS011;32591;48.102;11.772;2023-05-24T05:41:46;10.27;;;6.07;;
46116;SDS011;32591;48.102;11.772;2023-05-24T05:44:15;9.70;;;6.63;;
46116;SDS011;32591;48.102;11.772;2023-05-24T05:46:42;12.25;;;6.45;;
46116;SDS011;32591;48.102;11.772;2023-05-24T05:49:10;11.30;;;7.00;;
46116;SDS011;32591;48.102;11.772;2023-05-24T05:51:37;11.88;;;7.75;;
46116;SDS011;32591;48.102;11.772;2023-05-24T05:54:04;11.50;;;6.63;;
46116;SDS011;32591;48.102;11.772;2023-05-24T05:56:32;10.00;;;6.97;;
46116;SDS011;32591;48.102;11.772;2023-05-24T05:59:05;9.75;;;7.15;;
46116;SDS011;32591;48.102;11.772;2023-05-24T06:01:33;10.50;;;7.35;;
46116;SDS011;32591;48.102;11.772;2023-05-24T06:04:00;11.20;;;8.02;;
46116;SDS011;32591;48.102;11.772;2023-05-24T06:06:27;13.93;;;8.82;;
46116;SDS011;32591;48.102;11.772;2023-05-24T06:08:54;11.00;;;7.95;;
46116;SDS011;32591;48.102;11.772;2023-05-24T06:11:21;9.85;;;7.68;;
46116;SDS011;32591;48.102;11.772;2023-05-24T06:13:48;10.40;;;7.95;;
46116;SDS011;32591;48.102;11.772;2023-05-24T06:16:15;10.48;;;7.72;;
46116;SDS011;32591;48.102;11.772;2023-05-24T06:18:43;12.93;;;8.20;;
46116;SDS011;32591;48.102;11.772;2023-05-24T06:21:11;9.52;;;7.25;;
46116;SDS011;32591;48.102;11.772;2023-05-24T06:23:38;10.35;;;7.03;;
46116;SDS011;32591;48.102;11.772;2023-05-24T06:26:05;11.18;;;8.10;;
46116;SDS011;32591;48.102;11.772;2023-05-24T06:28:33;9.00;;;6.47;;
46116;SDS011;32591;48.102;11.772;2023-05-24T06:31:01;9.50;;;7.07;;
46116;SDS011;32591;48.102;11.772;2023-05-24T06:33:28;9.32;;;6.78;;
46116;SDS011;32591;48.102;11.772;2023-05-24T06:35:57;9.38;;;6.82;;
46116;SDS011;32591;48.102;11.772;2023-05-24T06:38:24;9.77;;;6.72;;
46116;SDS011;32591;48.102;11.772;2023-05-24T06:40:52;9.10;;;6.50;;
46116;SDS011;32591;48.102;11.772;2023-05-24T06:43:19;7.90;;;6.40;;
46116;SDS011;32591;48.102;11.772;2023-05-24T06:45:46;10.98;;;7.28;;
46116;SDS011;32591;48.102;11.772;2023-05-24T06:48:13;9.00;;;6.40;;
46116;SDS011;32591;48.102;11.772;2023-05-24T06:50:40;8.98;;;6.65;;
46116;SDS011;32591;48.102;11.772;2023-05-24T06:53:09;8.75;;;7.22;;
46116;SDS011;32591;48.102;11.772;2023-05-24T06:55:36;9.68;;;7.60;;
46116;SDS011;32591;48.102;11.772;2023-05-24T06:58:03;9.82;;;6.18;;
46116;SDS011;32591;48.102;11.772;2023-05-24T07:00:31;9.27;;;6.25;;
46116;SDS011;32591;48.102;11.772;2023-05-24T07:02:58;8.73;;;6.40;;
46116;SDS011;32591;48.102;11.772;2023-05-24T07:05:25;8.02;;;5.80;;
46116;SDS011;32591;48.102;11.772;2023-05-24T07:07:52;11.80;;;5.85;;
46116;SDS011;32591;48.102;11.772;2023-05-24T07:10:20;8.05;;;5.60;;
46116;SDS011;32591;48.102;11.772;2023-05-24T07:12:47;7.30;;;5.57;;
46116;SDS011;32591;48.102;11.772;2023-05-24T07:15:14;7.60;;;5.57;;
46116;SDS011;32591;48.102;11.772;2023-05-24T07:17:41;7.38;;;5.10;;
46116;SDS011;32591;48.102;11.772;2023-05-24T07:20:08;6.90;;;5.32;;
46116;SDS011;32591;48.102;11.772;2023-05-24T07:22:37;8.20;;;4.80;;
46116;SDS011;32591;48.102;11.772;2023-05-24T07:25:05;9.75;;;5.15;;
46116;SDS011;32591;48.102;11.772;2023-05-24T07:27:35;7.68;;;5.30;;
46116;SDS011;32591;48.102;11.772;2023-05-24T07:30:02;7.30;;;5.18;;
46116;SDS011;32591;48.102;11.772;2023-05-24T07:32:31;5.85;;;4.65;;
46116;SDS011;32591;48.102;11.772;2023-05-24T07:34:58;6.78;;;4.85;;
46116;SDS011;32591;48.102;11.772;2023-05-24T07:37:25;7.18;;;4.75;;
46116;SDS011;32591;48.102;11.772;2023-05-24T07:39:52;8.15;;;5.10;;
46116;SDS011;32591;48.102;11.772;2023-05-24T07:42:18;6.93;;;4.45;;
46116;SDS011;32591;48.102;11.772;2023-05-24T07:44:47;7.00;;;4.97;;
46116;SDS011;32591;48.102;11.772;2023-05-24T07:47:14;7.05;;;4.60;;
46116;SDS011;32591;48.102;11.772;2023-05-24T07:49:41;7.00;;;4.78;;
46116;SDS011;32591;48.102;11.772;2023-05-24T07:52:07;6.70;;;4.93;;
46116;SDS011;32591;48.102;11.772;2023-05-24T07:54:34;6.22;;;4.53;;
46116;SDS011;32591;48.102;11.772;2023-05-24T07:57:01;6.72;;;5.05;;
46116;SDS011;32591;48.102;11.772;2023-05-24T07:59:29;8.48;;;5.55;;
46116;SDS011;32591;48.102;11.772;2023-05-24T08:01:58;7.82;;;5.53;;
46116;SDS011;32591;48.102;11.772;2023-05-24T08:04:29;8.80;;;5.75;;
46116;SDS011;32591;48.102;11.772;2023-05-24T08:06:56;7.57;;;5.40;;
46116;SDS011;32591;48.102;11.772;2023-05-24T08:09:25;6.97;;;5.10;;
46116;SDS011;32591;48.102;11.772;2023-05-24T08:11:53;9.18;;;5.47;;
46116;SDS011;32591;48.102;11.772;2023-05-24T08:14:21;9.15;;;5.70;;
46116;SDS011;32591;48.102;11.772;2023-05-24T08:16:48;11.82;;;5.63;;
46116;SDS011;32591;48.102;11.772;2023-05-24T08:19:16;8.35;;;5.78;;
46116;SDS011;32591;48.102;11.772;2023-05-24T08:21:44;10.43;;;5.93;;
46116;SDS011;32591;48.102;11.772;2023-05-24T08:24:10;8.82;;;6.32;;
46116;SDS011;32591;48.102;11.772;2023-05-24T08:26:37;8.93;;;5.50;;
46116;SDS011;32591;48.102;11.772;2023-05-24T08:29:04;9.35;;;5.72;;
46116;SDS011;32591;48.102;11.772;2023-05-24T08:31:31;8.68;;;6.47;;
46116;SDS011;32591;48.102;11.772;2023-05-24T08:33:58;10.38;;;6.30;;
46116;SDS011;32591;48.102;11.772;2023-05-24T08:36:28;8.82;;;6.38;;
46116;SDS011;32591;48.102;11.772;2023-05-24T08:38:55;8.07;;;6.03;;
46116;SDS011;32591;48.102;11.772;2023-05-24T08:41:23;7.78;;;5.85;;
46116;SDS011;32591;48.102;11.772;2023-05-24T08:43:51;8.48;;;5.72;;
46116;SDS011;32591;48.102;11.772;2023-05-24T08:46:21;9.05;;;5.88;;
46116;SDS011;32591;48.102;11.772;2023-05-24T08:48:48;9.30;;;5.90;;
46116;SDS011;32591;48.102;11.772;2023-05-24T08:51:17;10.13;;;6.10;;
46116;SDS011;32591;48.102;11.772;2023-05-24T08:53:46;8.85;;;6.03;;
46116;SDS011;32591;48.102;11.772;2023-05-24T08:56:15;9.65;;;5.70;;
46116;SDS011;32591;48.102;11.772;2023-05-24T08:58:44;8.63;;;6.05;;
46116;SDS011;32591;48.102;11.772;2023-05-24T09:01:12;9.40;;;5.75;;
46116;SDS011;32591;48.102;11.772;2023-05-24T09:03:39;8.40;;;5.85;;
46116;SDS011;32591;48.102;11.772;2023-05-24T09:06:08;8.30;;;5.85;;
46116;SDS011;32591;48.102;11.772;2023-05-24T09:08:37;8.73;;;6.07;;
46116;SDS011;32591;48.102;11.772;2023-05-24T09:11:07;8.40;;;6.15;;
46116;SDS011;32591;48.102;11.772;2023-05-24T09:13:34;10.18;;;6.10;;
46116;SDS011;32591;48.102;11.772;2023-05-24T09:16:02;8.02;;;5.75;;
46116;SDS011;32591;48.102;11.772;2023-05-24T09:18:30;8.85;;;5.60;;
46116;SDS011;32591;48.102;11.772;2023-05-24T09:20:57;9.18;;;6.15;;
46116;SDS011;32591;48.102;11.772;2023-05-24T09:23:24;8.88;;;5.60;;
46116;SDS011;32591;48.102;11.772;2023-05-24T09:25:52;12.75;;;6.97;;
46116;SDS011;32591;48.102;11.772;2023-05-24T09:28:20;7.85;;;4.85;;
46116;SDS011;32591;48.102;11.772;2023-05-24T09:30:57;8.48;;;6.05;;
46116;SDS011;32591;48.102;11.772;2023-05-24T09:33:27;7.97;;;5.32;;
46116;SDS011;32591;48.102;11.772;2023-05-24T09:35:56;10.30;;;6.00;;
46116;SDS011;32591;48.102;11.772;2023-05-24T09:38:24;9.00;;;5.93;;
46116;SDS011;32591;48.102;11.772;2023-05-24T09:40:58;8.90;;;5.85;;
46116;SDS011;32591;48.102;11.772;2023-05-24T09:43:29;8.25;;;5.80;;
46116;SDS011;32591;48.102;11.772;2023-05-24T09:46:00;10.00;;;6.32;;
46116;SDS011;32591;48.102;11.772;2023-05-24T09:48:28;7.28;;;5.90;;
46116;SDS011;32591;48.102;11.772;2023-05-24T09:50:58;8.63;;;5.68;;
46116;SDS011;32591;48.102;11.772;2023-05-24T09:53:29;13.35;;;6.28;;
46116;SDS011;32591;48.102;11.772;2023-05-24T09:55:58;10.63;;;6.22;;
46116;SDS011;32591;48.102;11.772;2023-05-24T09:58:29;10.93;;;5.97;;
46116;SDS011;32591;48.102;11.772;2023-05-24T10:01:04;11.07;;;6.43;;
46116;SDS011;32591;48.102;11.772;2023-05-24T10:03:32;9.88;;;5.60;;
46116;SDS011;32591;48.102;11.772;2023-05-24T10:06:01;7.88;;;5.45;;
46116;SDS011;32591;48.102;11.772;2023-05-24T10:08:31;11.27;;;6.30;;
46116;SDS011;32591;48.102;11.772;2023-05-24T10:11:00;8.90;;;6.18;;
46116;SDS011;32591;48.102;11.772;2023-05-24T10:13:30;9.95;;;6.47;;
46116;SDS011;32591;48.102;11.772;2023-05-24T10:15:58;8.75;;;6.93;;
46116;SDS011;32591;48.102;11.772;2023-05-24T10:18:24;8.65;;;6.63;;
46116;SDS011;32591;48.102;11.772;2023-05-24T10:20:52;11.38;;;7.15;;
46116;SDS011;32591;48.102;11.772;2023-05-24T10:23:21;11.30;;;7.35;;
46116;SDS011;32591;48.102;11.772;2023-05-24T10:25:54;11.80;;;7.13;;
46116;SDS011;32591;48.102;11.772;2023-05-24T10:28:28;9.20;;;6.60;;
46116;SDS011;32591;48.102;11.772;2023-05-24T10:31:02;10.45;;;7.05;;
46116;SDS011;32591;48.102;11.772;2023-05-24T10:33:36;9.63;;;7.00;;
46116;SDS011;32591;48.102;11.772;2023-05-24T10:36:05;11.18;;;7.20;;
46116;SDS011;32591;48.102;11.772;2023-05-24T10:38:36;9.90;;;6.97;;
46116;SDS011;32591;48.102;11.772;2023-05-24T10:41:04;12.88;;;7.30;;
46116;SDS011;32591;48.102;11.772;2023-05-24T10:43:34;9.02;;;6.88;;
46116;SDS011;32591;48.102;11.772;2023-05-24T10:46:04;12.57;;;7.53;;
46116;SDS011;32591;48.102;11.772;2023-05-24T10:48:35;10.88;;;7.40;;
46116;SDS011;32591;48.102;11.772;2023-05-24T10:54:17;11.73;;;7.50;;
46116;SDS011;32591;48.102;11.772;2023-05-24T10:56:46;13.60;;;7.87;;
46116;SDS011;32591;48.102;11.772;2023-05-24T10:59:22;12.50;;;8.45;;
46116;SDS011;32591;48.102;11.772;2023-05-24T11:01:55;14.40;;;9.77;;
46116;SDS011;32591;48.102;11.772;2023-05-24T11:04:25;14.30;;;8.98;;
46116;SDS011;32591;48.102;11.772;2023-05-24T11:06:54;14.02;;;8.57;;
46116;SDS011;32591;48.102;11.772;2023-05-24T11:09:24;12.63;;;8.40;;
46116;SDS011;32591;48.102;11.772;2023-05-24T11:11:56;15.38;;;9.70;;
46116;SDS011;32591;48.102;11.772;2023-05-24T11:14:29;13.00;;;8.70;;
46116;SDS011;32591;48.102;11.772;2023-05-24T11:16:57;16.27;;;9.65;;
46116;SDS011;32591;48.102;11.772;2023-05-24T11:19:29;15.88;;;9.23;;
46116;SDS011;32591;48.102;11.772;2023-05-24T11:21:59;13.73;;;8.57;;
46116;SDS011;32591;48.102;11.772;2023-05-24T11:24:29;14.43;;;9.48;;
46116;SDS011;32591;48.102;11.772;2023-05-24T11:26:56;14.90;;;9.05;;
46116;SDS011;32591;48.102;11.772;2023-05-24T11:29:26;13.82;;;8.50;;
46116;SDS011;32591;48.102;11.772;2023-05-24T11:31:55;13.85;;;7.65;;
46116;SDS011;32591;48.102;11.772;2023-05-24T11:34:28;11.40;;;8.55;;
46116;SDS011;32591;48.102;11.772;2023-05-24T11:36:57;8.80;;;7.32;;
46116;SDS011;32591;48.102;11.772;2023-05-24T11:39:27;12.13;;;8.27;;
46116;SDS011;32591;48.102;11.772;2023-05-24T11:41:55;15.85;;;8.48;;
46116;SDS011;32591;48.102;11.772;2023-05-24T11:44:22;13.32;;;8.20;;
46116;SDS011;32591;48.102;11.772;2023-05-24T11:46:56;12.00;;;8.85;;
46116;SDS011;32591;48.102;11.772;2023-05-24T11:49:25;12.63;;;8.82;;
46116;SDS011;32591;48.102;11.772;2023-05-24T11:51:53;13.70;;;8.77;;
46116;SDS011;32591;48.102;11.772;2023-05-24T11:54:21;13.32;;;9.57;;
46116;SDS011;32591;48.102;11.772;2023-05-24T11:56:48;15.43;;;9.77;;
46116;SDS011;32591;48.102;11.772;2023-05-24T11:59:16;14.23;;;9.20;;
46116;SDS011;32591;48.102;11.772;2023-05-24T12:01:49;16.67;;;10.68;;
46116;SDS011;32591;48.102;11.772;2023-05-24T12:04:24;15.85;;;10.05;;
46116;SDS011;32591;48.102;11.772;2023-05-24T12:06:51;13.05;;;9.38;;
46116;SDS011;32591;48.102;11.772;2023-05-24T12:09:20;13.85;;;9.90;;
46116;SDS011;32591;48.102;11.772;2023-05-24T12:11:48;13.90;;;9.80;;
46116;SDS011;32591;48.102;11.772;2023-05-24T12:14:17;16.40;;;9.65;;
46116;SDS011;32591;48.102;11.772;2023-05-24T12:16:45;15.07;;;9.48;;
46116;SDS011;32591;48.102;11.772;2023-05-24T12:19:16;14.93;;;9.23;;
46116;SDS011;32591;48.102;11.772;2023-05-24T12:21:44;11.63;;;9.45;;
46116;SDS011;32591;48.102;11.772;2023-05-24T12:24:13;14.73;;;10.02;;
46116;SDS011;32591;48.102;11.772;2023-05-24T12:26:41;14.27;;;10.25;;
46116;SDS011;32591;48.102;11.772;2023-05-24T12:29:10;15.00;;;10.48;;
46116;SDS011;32591;48.102;11.772;2023-05-24T12:31:40;14.18;;;10.30;;
46116;SDS011;32591;48.102;11.772;2023-05-24T12:34:10;21.70;;;10.20;;
46116;SDS011;32591;48.102;11.772;2023-05-24T12:36:39;13.68;;;10.30;;
46116;SDS011;32591;48.102;11.772;2023-05-24T12:39:16;14.02;;;11.32;;
46116;SDS011;32591;48.102;11.772;2023-05-24T12:41:51;18.63;;;10.80;;
46116;SDS011;32591;48.102;11.772;2023-05-24T12:44:23;16.08;;;10.65;;
46116;SDS011;32591;48.102;11.772;2023-05-24T12:46:51;15.38;;;12.10;;
46116;SDS011;32591;48.102;11.772;2023-05-24T12:49:19;19.42;;;11.63;;
46116;SDS011;32591;48.102;11.772;2023-05-24T12:51:49;14.93;;;11.52;;
46116;SDS011;32591;48.102;11.772;2023-05-24T12:54:17;21.42;;;11.88;;
46116;SDS011;32591;48.102;11.772;2023-05-24T12:56:47;16.17;;;12.00;;
46116;SDS011;32591;48.102;11.772;2023-05-24T12:59:14;16.48;;;11.43;;
46116;SDS011;32591;48.102;11.772;2023-05-24T13:01:41;18.40;;;10.40;;
46116;SDS011;32591;48.102;11.772;2023-05-24T13:04:14;18.10;;;11.07;;
46116;SDS011;32591;48.102;11.772;2023-05-24T13:06:41;14.00;;;10.40;;
46116;SDS011;32591;48.102;11.772;2023-05-24T13:09:10;15.05;;;10.50;;
46116;SDS011;32591;48.102;11.772;2023-05-24T13:11:38;15.18;;;10.55;;
46116;SDS011;32591;48.102;11.772;2023-05-24T13:14:05;12.75;;;10.18;;
46116;SDS011;32591;48.102;11.772;2023-05-24T13:16:32;15.00;;;10.82;;
46116;SDS011;32591;48.102;11.772;2023-05-24T13:19:00;11.98;;;9.63;;
46116;SDS011;32591;48.102;11.772;2023-05-24T13:21:27;13.48;;;10.23;;
46116;SDS011;32591;48.102;11.772;2023-05-24T13:23:54;15.57;;;10.63;;
46116;SDS011;32591;48.102;11.772;2023-05-24T13:26:22;14.80;;;10.27;;
46116;SDS011;32591;48.102;11.772;2023-05-24T13:28:49;14.82;;;9.40;;
46116;SDS011;32591;48.102;11.772;2023-05-24T13:31:16;12.25;;;8.75;;
46116;SDS011;32591;48.102;11.772;2023-05-24T13:33:43;12.45;;;9.50;;
46116;SDS011;32591;48.102;11.772;2023-05-24T13:36:10;11.77;;;8.82;;
46116;SDS011;32591;48.102;11.772;2023-05-24T13:38:37;14.18;;;9.50;;
46116;SDS011;32591;48.102;11.772;2023-05-24T13:41:04;13.55;;;9.35;;
46116;SDS011;32591;48.102;11.772;2023-05-24T13:43:33;13.35;;;9.55;;
46116;SDS011;32591;48.102;11.772;2023-05-24T13:46:00;13.93;;;8.75;;
46116;SDS011;32591;48.102;11.772;2023-05-24T13:48:27;13.77;;;9.57;;
46116;SDS011;32591;48.102;11.772;2023-05-24T13:50:54;11.98;;;8.27;;
46116;SDS011;32591;48.102;11.772;2023-05-24T13:53:21;16.38;;;10.32;;
46116;SDS011;32591;48.102;11.772;2023-05-24T13:55:48;12.45;;;7.93;;
46116;SDS011;32591;48.102;11.772;2023-05-24T13:58:15;10.13;;;7.53;;
46116;SDS011;32591;48.102;11.772;2023-05-24T14:00:43;14.38;;;9.05;;
46116;SDS011;32591;48.102;11.772;2023-05-24T14:03:10;16.13;;;8.65;;
46116;SDS011;32591;48.102;11.772;2023-05-24T14:05:37;12.13;;;8.55;;
46116;SDS011;32591;48.102;11.772;2023-05-24T14:08:05;14.40;;;8.85;;
46116;SDS011;32591;48.102;11.772;2023-05-24T14:10:32;12.73;;;7.50;;
46116;SDS011;32591;48.102;11.772;2023-05-24T14:13:00;11.27;;;7.18;;
46116;SDS011;32591;48.102;11.772;2023-05-24T14:15:27;10.18;;;7.60;;
46116;SDS011;32591;48.102;11.772;2023-05-24T14:17:56;12.50;;;7.55;;
46116;SDS011;32591;48.102;11.772;2023-05-24T14:20:24;10.70;;;7.15;;
46116;SDS011;32591;48.102;11.772;2023-05-24T14:22:51;15.02;;;7.78;;
46116;SDS011;32591;48.102;11.772;2023-05-24T14:25:18;13.30;;;8.23;;
46116;SDS011;32591;48.102;11.772;2023-05-24T14:27:45;10.20;;;6.63;;
46116;SDS011;32591;48.102;11.772;2023-05-24T14:30:12;11.65;;;6.80;;
46116;SDS011;32591;48.102;11.772;2023-05-24T14:32:40;16.92;;;7.10;;
46116;SDS011;32591;48.102;11.772;2023-05-24T14:35:08;17.02;;;7.05;;
46116;SDS011;32591;48.102;11.772;2023-05-24T14:37:35;11.52;;;7.30;;
46116;SDS011;32591;48.102;11.772;2023-05-24T14:40:03;10.73;;;6.75;;